sensor_id;sensor_type;location;lat;lon;timestamp;temperature;humidity
14682;DHT22;7429;52.498;13.480;2022-12-07T00:02:22;3.00;99.90
14682;DHT22;7429;52.498;13.480;2022-12-07T00:05:26;2.90;99.90
14682;DHT22;7429;52.498;13.480;2022-12-07T00:08:29;2.90;99.90
14682;DHT22;7429;52.498;13.480;2022-12-07T00:11:33;3.00;99.90
14682;DHT22;7429;52.498;13.480;2022-12-07T00:14:39;2.90;99.90
14682;DHT22;7429;52.498;13.480;2022-12-07T00:17:42;2.90;99.90
14682;DHT22;7429;52.498;13.480;2022-12-07T00:20:45;2.90;99.90
14682;DHT22;7429;52.498;13.480;2022-12-07T00:23:49;2.90;99.90
14682;DHT22;7429;52.498;13.480;2022-12-07T00:26:54;2.90;99.90
14682;DHT22;7429;52.498;13.480;2022-12-07T00:29:58;2.80;99.90
14682;DHT22;7429;52.498;13.480;2022-12-07T00:33:02;2.80;99.90
14682;DHT22;7429;52.498;13.480;2022-12-07T00:36:08;2.80;99.90
14682;DHT22;7429;52.498;13.480;2022-12-07T00:39:12;2.70;99.90
14682;DHT22;7429;52.498;13.480;2022-12-07T00:42:15;2.70;99.90
14682;DHT22;7429;52.498;13.480;2022-12-07T00:45:19;2.70;99.90
14682;DHT22;7429;52.498;13.480;2022-12-07T00:48:23;2.70;99.90
14682;DHT22;7429;52.498;13.480;2022-12-07T00:51:26;2.60;99.90
14682;DHT22;7429;52.498;13.480;2022-12-07T00:54:29;2.60;99.90
14682;DHT22;7429;52.498;13.480;2022-12-07T00:57:35;2.60;99.90
14682;DHT22;7429;52.498;13.480;2022-12-07T01:00:41;2.60;99.90
14682;DHT22;7429;52.498;13.480;2022-12-07T01:03:45;2.50;99.90
14682;DHT22;7429;52.498;13.480;2022-12-07T01:06:48;2.50;99.90
14682;DHT22;7429;52.498;13.480;2022-12-07T01:09:51;2.50;99.90
14682;DHT22;7429;52.498;13.480;2022-12-07T01:12:54;2.50;99.90
14682;DHT22;7429;52.498;13.480;2022-12-07T01:16:00;2.50;99.90
14682;DHT22;7429;52.498;13.480;2022-12-07T01:19:05;2.40;99.90
14682;DHT22;7429;52.498;13.480;2022-12-07T01:22:08;2.30;99.90
14682;DHT22;7429;52.498;13.480;2022-12-07T01:25:12;2.30;99.90
14682;DHT22;7429;52.498;13.480;2022-12-07T01:28:15;2.30;99.90
14682;DHT22;7429;52.498;13.480;2022-12-07T01:31:21;2.40;99.90
14682;DHT22;7429;52.498;13.480;2022-12-07T01:34:25;2.40;99.90
14682;DHT22;7429;52.498;13.480;2022-12-07T01:37:34;2.40;99.90
14682;DHT22;7429;52.498;13.480;2022-12-07T01:40:38;2.40;99.90
14682;DHT22;7429;52.498;13.480;2022-12-07T01:44:18;2.40;99.90
14682;DHT22;7429;52.498;13.480;2022-12-07T01:47:24;2.40;99.90
14682;DHT22;7429;52.498;13.480;2022-12-07T01:50:28;2.50;99.90
14682;DHT22;7429;52.498;13.480;2022-12-07T01:53:34;2.50;99.90
14682;DHT22;7429;52.498;13.480;2022-12-07T01:56:40;2.50;99.90
14682;DHT22;7429;52.498;13.480;2022-12-07T01:59:47;2.50;99.90
14682;DHT22;7429;52.498;13.480;2022-12-07T02:02:55;2.40;99.90
14682;DHT22;7429;52.498;13.480;2022-12-07T02:06:00;2.40;99.90
14682;DHT22;7429;52.498;13.480;2022-12-07T02:09:04;2.40;99.90
14682;DHT22;7429;52.498;13.480;2022-12-07T02:12:07;2.40;99.90
14682;DHT22;7429;52.498;13.480;2022-12-07T02:15:11;2.40;99.90
14682;DHT22;7429;52.498;13.480;2022-12-07T02:18:22;2.50;99.90
14682;DHT22;7429;52.498;13.480;2022-12-07T02:21:34;2.50;99.90
14682;DHT22;7429;52.498;13.480;2022-12-07T02:24:53;2.50;99.90
14682;DHT22;7429;52.498;13.480;2022-12-07T02:28:04;2.50;99.90
14682;DHT22;7429;52.498;13.480;2022-12-07T02:31:13;2.50;99.90
14682;DHT22;7429;52.498;13.480;2022-12-07T02:34:31;2.50;99.90
14682;DHT22;7429;52.498;13.480;2022-12-07T02:37:41;2.50;99.90
14682;DHT22;7429;52.498;13.480;2022-12-07T02:40:50;2.40;99.90
14682;DHT22;7429;52.498;13.480;2022-12-07T02:44:01;2.40;99.90
14682;DHT22;7429;52.498;13.480;2022-12-07T02:47:09;2.40;99.90
14682;DHT22;7429;52.498;13.480;2022-12-07T02:50:13;2.40;99.90
14682;DHT22;7429;52.498;13.480;2022-12-07T02:53:35;2.40;99.90
14682;DHT22;7429;52.498;13.480;2022-12-07T02:56:45;2.40;99.90
14682;DHT22;7429;52.498;13.480;2022-12-07T03:00:00;2.40;99.90
14682;DHT22;7429;52.498;13.480;2022-12-07T03:03:10;2.30;99.90
14682;DHT22;7429;52.498;13.480;2022-12-07T03:06:22;2.30;99.90
14682;DHT22;7429;52.498;13.480;2022-12-07T03:09:36;2.20;99.90
14682;DHT22;7429;52.498;13.480;2022-12-07T03:12:45;2.20;99.90
14682;DHT22;7429;52.498;13.480;2022-12-07T03:15:55;2.20;99.90
14682;DHT22;7429;52.498;13.480;2022-12-07T03:19:07;2.20;99.90
14682;DHT22;7429;52.498;13.480;2022-12-07T03:22:13;2.20;99.90
14682;DHT22;7429;52.498;13.480;2022-12-07T03:25:20;2.20;99.90
14682;DHT22;7429;52.498;13.480;2022-12-07T03:28:24;2.20;99.90
14682;DHT22;7429;52.498;13.480;2022-12-07T03:31:31;2.20;99.90
14682;DHT22;7429;52.498;13.480;2022-12-07T03:34:42;2.20;99.90
14682;DHT22;7429;52.498;13.480;2022-12-07T03:37:51;2.10;99.90
14682;DHT22;7429;52.498;13.480;2022-12-07T03:41:00;2.10;99.90
14682;DHT22;7429;52.498;13.480;2022-12-07T03:44:07;2.10;99.90
14682;DHT22;7429;52.498;13.480;2022-12-07T03:47:14;2.10;99.90
14682;DHT22;7429;52.498;13.480;2022-12-07T03:50:25;2.10;99.90
14682;DHT22;7429;52.498;13.480;2022-12-07T03:53:35;2.10;99.90
14682;DHT22;7429;52.498;13.480;2022-12-07T03:56:41;2.00;99.90
14682;DHT22;7429;52.498;13.480;2022-12-07T03:59:45;2.10;99.90
14682;DHT22;7429;52.498;13.480;2022-12-07T04:02:51;2.10;99.90
14682;DHT22;7429;52.498;13.480;2022-12-07T04:05:57;2.00;99.90
14682;DHT22;7429;52.498;13.480;2022-12-07T04:09:00;2.10;99.90
14682;DHT22;7429;52.498;13.480;2022-12-07T04:12:03;2.10;99.90
14682;DHT22;7429;52.498;13.480;2022-12-07T04:15:09;2.00;99.90
14682;DHT22;7429;52.498;13.480;2022-12-07T04:18:12;2.00;99.90
14682;DHT22;7429;52.498;13.480;2022-12-07T04:21:17;2.00;99.90
14682;DHT22;7429;52.498;13.480;2022-12-07T04:24:22;2.00;99.90
14682;DHT22;7429;52.498;13.480;2022-12-07T04:27:26;2.00;99.90
14682;DHT22;7429;52.498;13.480;2022-12-07T04:30:29;2.00;99.90
14682;DHT22;7429;52.498;13.480;2022-12-07T04:33:31;1.90;99.90
14682;DHT22;7429;52.498;13.480;2022-12-07T04:36:36;1.90;99.90
14682;DHT22;7429;52.498;13.480;2022-12-07T04:39:40;2.00;99.90
14682;DHT22;7429;52.498;13.480;2022-12-07T04:42:45;1.90;99.90
14682;DHT22;7429;52.498;13.480;2022-12-07T04:45:48;1.90;99.90
14682;DHT22;7429;52.498;13.480;2022-12-07T04:48:53;1.90;99.90
14682;DHT22;7429;52.498;13.480;2022-12-07T04:51:58;2.00;99.90
14682;DHT22;7429;52.498;13.480;2022-12-07T04:55:01;2.00;99.90
14682;DHT22;7429;52.498;13.480;2022-12-07T04:58:04;2.10;99.90
14682;DHT22;7429;52.498;13.480;2022-12-07T05:01:07;2.00;99.90
14682;DHT22;7429;52.498;13.480;2022-12-07T05:04:12;2.00;99.90
14682;DHT22;7429;52.498;13.480;2022-12-07T05:07:16;2.10;99.90
14682;DHT22;7429;52.498;13.480;2022-12-07T05:10:22;2.10;99.90
14682;DHT22;7429;52.498;13.480;2022-12-07T05:13:27;2.10;99.90
14682;DHT22;7429;52.498;13.480;2022-12-07T05:16:30;2.10;99.90
14682;DHT22;7429;52.498;13.480;2022-12-07T05:19:34;2.10;99.90
14682;DHT22;7429;52.498;13.480;2022-12-07T05:22:41;2.10;99.90
14682;DHT22;7429;52.498;13.480;2022-12-07T05:25:44;2.10;99.90
14682;DHT22;7429;52.498;13.480;2022-12-07T05:28:50;2.10;99.90
14682;DHT22;7429;52.498;13.480;2022-12-07T05:31:54;2.20;99.90
14682;DHT22;7429;52.498;13.480;2022-12-07T05:34:57;2.20;99.90
14682;DHT22;7429;52.498;13.480;2022-12-07T05:38:01;2.20;99.90
14682;DHT22;7429;52.498;13.480;2022-12-07T05:41:06;2.30;99.90
14682;DHT22;7429;52.498;13.480;2022-12-07T05:44:09;2.30;99.90
14682;DHT22;7429;52.498;13.480;2022-12-07T05:47:15;2.40;99.90
14682;DHT22;7429;52.498;13.480;2022-12-07T05:50:19;2.40;99.90
14682;DHT22;7429;52.498;13.480;2022-12-07T05:53:35;2.40;99.90
14682;DHT22;7429;52.498;13.480;2022-12-07T05:56:39;2.40;99.90
14682;DHT22;7429;52.498;13.480;2022-12-07T05:59:42;2.50;99.90
14682;DHT22;7429;52.498;13.480;2022-12-07T06:02:45;2.50;99.90
14682;DHT22;7429;52.498;13.480;2022-12-07T06:05:49;2.60;99.90
14682;DHT22;7429;52.498;13.480;2022-12-07T06:08:53;2.60;99.90
14682;DHT22;7429;52.498;13.480;2022-12-07T06:11:58;2.60;99.90
14682;DHT22;7429;52.498;13.480;2022-12-07T06:15:20;2.60;99.90
14682;DHT22;7429;52.498;13.480;2022-12-07T06:18:27;2.70;99.90
14682;DHT22;7429;52.498;13.480;2022-12-07T06:21:40;2.70;99.90
14682;DHT22;7429;52.498;13.480;2022-12-07T06:24:47;2.70;99.90
14682;DHT22;7429;52.498;13.480;2022-12-07T06:27:50;2.70;99.90
14682;DHT22;7429;52.498;13.480;2022-12-07T06:30:57;2.80;99.90
14682;DHT22;7429;52.498;13.480;2022-12-07T06:34:02;2.80;99.90
14682;DHT22;7429;52.498;13.480;2022-12-07T06:37:06;2.80;99.90
14682;DHT22;7429;52.498;13.480;2022-12-07T06:40:11;2.80;99.90
14682;DHT22;7429;52.498;13.480;2022-12-07T06:43:14;2.80;99.90
14682;DHT22;7429;52.498;13.480;2022-12-07T06:46:17;2.90;99.90
14682;DHT22;7429;52.498;13.480;2022-12-07T06:49:21;2.90;99.90
14682;DHT22;7429;52.498;13.480;2022-12-07T06:52:24;2.90;99.90
14682;DHT22;7429;52.498;13.480;2022-12-07T06:55:28;2.90;99.90
14682;DHT22;7429;52.498;13.480;2022-12-07T06:58:31;2.90;99.90
14682;DHT22;7429;52.498;13.480;2022-12-07T07:01:36;3.00;99.90
14682;DHT22;7429;52.498;13.480;2022-12-07T07:04:39;3.00;99.90
14682;DHT22;7429;52.498;13.480;2022-12-07T07:07:42;3.00;99.90
14682;DHT22;7429;52.498;13.480;2022-12-07T07:11:08;3.10;99.90
14682;DHT22;7429;52.498;13.480;2022-12-07T07:14:11;3.10;99.90
14682;DHT22;7429;52.498;13.480;2022-12-07T07:17:17;3.20;99.90
14682;DHT22;7429;52.498;13.480;2022-12-07T07:20:23;3.20;99.90
14682;DHT22;7429;52.498;13.480;2022-12-07T07:23:27;3.20;99.90
14682;DHT22;7429;52.498;13.480;2022-12-07T07:26:31;3.30;99.90
14682;DHT22;7429;52.498;13.480;2022-12-07T07:29:37;3.30;99.90
14682;DHT22;7429;52.498;13.480;2022-12-07T07:32:40;3.40;99.90
14682;DHT22;7429;52.498;13.480;2022-12-07T07:35:43;3.50;99.90
14682;DHT22;7429;52.498;13.480;2022-12-07T07:38:46;3.50;99.90
14682;DHT22;7429;52.498;13.480;2022-12-07T07:41:51;3.50;99.90
14682;DHT22;7429;52.498;13.480;2022-12-07T07:44:59;3.60;99.90
14682;DHT22;7429;52.498;13.480;2022-12-07T07:48:03;3.60;99.90
14682;DHT22;7429;52.498;13.480;2022-12-07T07:51:31;3.50;99.90
14682;DHT22;7429;52.498;13.480;2022-12-07T07:54:34;3.60;99.90
14682;DHT22;7429;52.498;13.480;2022-12-07T07:57:41;3.60;99.90
14682;DHT22;7429;52.498;13.480;2022-12-07T08:00:47;3.60;99.90
14682;DHT22;7429;52.498;13.480;2022-12-07T08:03:51;3.70;99.90
14682;DHT22;7429;52.498;13.480;2022-12-07T08:06:54;3.70;99.90
14682;DHT22;7429;52.498;13.480;2022-12-07T08:09:57;3.70;99.90
14682;DHT22;7429;52.498;13.480;2022-12-07T08:13:03;3.70;99.90
14682;DHT22;7429;52.498;13.480;2022-12-07T08:16:18;3.70;99.90
14682;DHT22;7429;52.498;13.480;2022-12-07T08:19:24;3.70;99.90
14682;DHT22;7429;52.498;13.480;2022-12-07T08:22:27;3.70;99.90
14682;DHT22;7429;52.498;13.480;2022-12-07T08:25:31;3.70;99.90
14682;DHT22;7429;52.498;13.480;2022-12-07T08:28:36;3.70;99.90
14682;DHT22;7429;52.498;13.480;2022-12-07T08:31:40;3.80;99.90
14682;DHT22;7429;52.498;13.480;2022-12-07T08:34:43;3.70;99.90
14682;DHT22;7429;52.498;13.480;2022-12-07T08:37:46;3.80;99.90
14682;DHT22;7429;52.498;13.480;2022-12-07T08:40:53;3.80;99.90
14682;DHT22;7429;52.498;13.480;2022-12-07T08:43:59;3.90;99.90
14682;DHT22;7429;52.498;13.480;2022-12-07T08:47:06;3.80;99.90
14682;DHT22;7429;52.498;13.480;2022-12-07T08:50:10;3.90;99.90
14682;DHT22;7429;52.498;13.480;2022-12-07T08:53:14;3.90;99.90
14682;DHT22;7429;52.498;13.480;2022-12-07T08:56:18;3.90;99.90
14682;DHT22;7429;52.498;13.480;2022-12-07T08:59:24;3.90;99.90
14682;DHT22;7429;52.498;13.480;2022-12-07T09:02:28;3.90;99.90
14682;DHT22;7429;52.498;13.480;2022-12-07T09:05:34;3.90;99.90
14682;DHT22;7429;52.498;13.480;2022-12-07T09:08:47;3.90;99.90
14682;DHT22;7429;52.498;13.480;2022-12-07T09:11:52;3.90;99.90
14682;DHT22;7429;52.498;13.480;2022-12-07T09:14:56;3.90;99.90
14682;DHT22;7429;52.498;13.480;2022-12-07T09:18:00;3.80;99.90
14682;DHT22;7429;52.498;13.480;2022-12-07T09:21:03;3.90;99.90
14682;DHT22;7429;52.498;13.480;2022-12-07T09:24:06;3.90;99.90
14682;DHT22;7429;52.498;13.480;2022-12-07T09:27:10;3.90;99.90
14682;DHT22;7429;52.498;13.480;2022-12-07T09:30:15;3.90;99.90
14682;DHT22;7429;52.498;13.480;2022-12-07T09:33:20;3.90;99.90
14682;DHT22;7429;52.498;13.480;2022-12-07T09:36:24;3.80;99.90
14682;DHT22;7429;52.498;13.480;2022-12-07T09:39:28;3.70;99.90
14682;DHT22;7429;52.498;13.480;2022-12-07T09:42:34;3.70;99.90
14682;DHT22;7429;52.498;13.480;2022-12-07T09:45:44;3.70;99.90
14682;DHT22;7429;52.498;13.480;2022-12-07T09:48:50;3.70;99.90
14682;DHT22;7429;52.498;13.480;2022-12-07T09:52:02;3.70;99.90
14682;DHT22;7429;52.498;13.480;2022-12-07T09:55:22;3.70;99.90
14682;DHT22;7429;52.498;13.480;2022-12-07T09:58:29;3.60;99.90
14682;DHT22;7429;52.498;13.480;2022-12-07T10:01:34;3.70;99.90
14682;DHT22;7429;52.498;13.480;2022-12-07T10:04:41;3.60;99.90
14682;DHT22;7429;52.498;13.480;2022-12-07T10:07:45;3.60;99.90
14682;DHT22;7429;52.498;13.480;2022-12-07T10:10:51;3.60;99.90
14682;DHT22;7429;52.498;13.480;2022-12-07T10:13:55;3.60;99.90
14682;DHT22;7429;52.498;13.480;2022-12-07T10:17:31;3.60;99.90
14682;DHT22;7429;52.498;13.480;2022-12-07T10:20:36;3.60;99.90
14682;DHT22;7429;52.498;13.480;2022-12-07T10:23:42;3.60;99.90
14682;DHT22;7429;52.498;13.480;2022-12-07T10:27:02;3.60;99.90
14682;DHT22;7429;52.498;13.480;2022-12-07T10:30:12;3.60;99.90
14682;DHT22;7429;52.498;13.480;2022-12-07T10:33:33;3.60;99.90
14682;DHT22;7429;52.498;13.480;2022-12-07T10:36:40;3.60;99.90
14682;DHT22;7429;52.498;13.480;2022-12-07T10:39:45;3.60;99.90
14682;DHT22;7429;52.498;13.480;2022-12-07T10:43:00;3.50;99.90
14682;DHT22;7429;52.498;13.480;2022-12-07T10:50:17;3.50;99.90
14682;DHT22;7429;52.498;13.480;2022-12-07T10:53:44;3.50;99.90
14682;DHT22;7429;52.498;13.480;2022-12-07T10:57:15;3.60;99.90
14682;DHT22;7429;52.498;13.480;2022-12-07T11:00:30;3.60;99.90
14682;DHT22;7429;52.498;13.480;2022-12-07T11:03:48;3.50;99.90
14682;DHT22;7429;52.498;13.480;2022-12-07T11:07:10;3.50;99.90
14682;DHT22;7429;52.498;13.480;2022-12-07T11:14:39;3.60;99.90
14682;DHT22;7429;52.498;13.480;2022-12-07T11:17:56;3.60;99.90
14682;DHT22;7429;52.498;13.480;2022-12-07T11:21:09;3.70;99.90
14682;DHT22;7429;52.498;13.480;2022-12-07T11:24:19;3.70;99.90
14682;DHT22;7429;52.498;13.480;2022-12-07T11:27:33;3.70;99.90
14682;DHT22;7429;52.498;13.480;2022-12-07T11:30:44;3.70;99.90
14682;DHT22;7429;52.498;13.480;2022-12-07T11:33:55;3.70;99.90
14682;DHT22;7429;52.498;13.480;2022-12-07T11:37:03;3.80;99.90
14682;DHT22;7429;52.498;13.480;2022-12-07T11:40:20;3.80;99.90
14682;DHT22;7429;52.498;13.480;2022-12-07T11:43:32;3.80;99.90
14682;DHT22;7429;52.498;13.480;2022-12-07T11:46:49;3.80;99.90
14682;DHT22;7429;52.498;13.480;2022-12-07T11:50:03;3.90;99.90
14682;DHT22;7429;52.498;13.480;2022-12-07T11:53:24;3.90;99.90
14682;DHT22;7429;52.498;13.480;2022-12-07T11:56:30;3.90;99.90
14682;DHT22;7429;52.498;13.480;2022-12-07T11:59:47;3.90;99.90
14682;DHT22;7429;52.498;13.480;2022-12-07T12:02:58;4.00;99.90
14682;DHT22;7429;52.498;13.480;2022-12-07T12:06:04;4.00;99.90
14682;DHT22;7429;52.498;13.480;2022-12-07T12:09:13;4.10;99.90
14682;DHT22;7429;52.498;13.480;2022-12-07T12:12:58;4.10;99.90
14682;DHT22;7429;52.498;13.480;2022-12-07T12:16:57;4.10;99.90
14682;DHT22;7429;52.498;13.480;2022-12-07T12:20:20;4.10;99.90
14682;DHT22;7429;52.498;13.480;2022-12-07T12:23:36;4.10;99.90
14682;DHT22;7429;52.498;13.480;2022-12-07T12:26:53;4.20;99.90
14682;DHT22;7429;52.498;13.480;2022-12-07T12:30:29;4.20;99.90
14682;DHT22;7429;52.498;13.480;2022-12-07T12:33:46;4.20;99.90
14682;DHT22;7429;52.498;13.480;2022-12-07T12:46:53;4.30;99.90
14682;DHT22;7429;52.498;13.480;2022-12-07T12:50:20;4.30;99.90
14682;DHT22;7429;52.498;13.480;2022-12-07T12:54:03;4.30;99.90
14682;DHT22;7429;52.498;13.480;2022-12-07T12:57:26;4.40;99.90
14682;DHT22;7429;52.498;13.480;2022-12-07T13:04:56;4.30;99.90
14682;DHT22;7429;52.498;13.480;2022-12-07T13:08:35;4.30;99.90
14682;DHT22;7429;52.498;13.480;2022-12-07T13:12:05;4.40;99.90
14682;DHT22;7429;52.498;13.480;2022-12-07T13:20:58;4.40;99.90
14682;DHT22;7429;52.498;13.480;2022-12-07T13:25:34;4.50;99.90
14682;DHT22;7429;52.498;13.480;2022-12-07T13:29:13;4.40;99.90
14682;DHT22;7429;52.498;13.480;2022-12-07T13:32:58;4.50;99.90
14682;DHT22;7429;52.498;13.480;2022-12-07T13:40:41;4.40;99.90
14682;DHT22;7429;52.498;13.480;2022-12-07T13:44:00;4.50;99.90
14682;DHT22;7429;52.498;13.480;2022-12-07T13:47:09;4.60;99.90
14682;DHT22;7429;52.498;13.480;2022-12-07T13:50:24;4.50;99.90
14682;DHT22;7429;52.498;13.480;2022-12-07T13:53:49;4.50;99.90
14682;DHT22;7429;52.498;13.480;2022-12-07T13:56:56;4.50;99.90
14682;DHT22;7429;52.498;13.480;2022-12-07T14:00:45;4.60;99.90
14682;DHT22;7429;52.498;13.480;2022-12-07T14:04:00;4.50;99.90
14682;DHT22;7429;52.498;13.480;2022-12-07T14:07:25;4.50;99.90
14682;DHT22;7429;52.498;13.480;2022-12-07T14:10:34;4.50;99.90
14682;DHT22;7429;52.498;13.480;2022-12-07T14:13:50;4.50;99.90
14682;DHT22;7429;52.498;13.480;2022-12-07T14:17:12;4.50;99.90
14682;DHT22;7429;52.498;13.480;2022-12-07T14:20:30;4.50;99.90
14682;DHT22;7429;52.498;13.480;2022-12-07T14:23:38;4.50;99.90
14682;DHT22;7429;52.498;13.480;2022-12-07T14:31:48;4.50;99.90
14682;DHT22;7429;52.498;13.480;2022-12-07T14:35:33;4.50;99.90
14682;DHT22;7429;52.498;13.480;2022-12-07T14:41:01;4.50;99.90
14682;DHT22;7429;52.498;13.480;2022-12-07T14:45:29;4.40;99.90
14682;DHT22;7429;52.498;13.480;2022-12-07T14:49:48;4.40;99.90
14682;DHT22;7429;52.498;13.480;2022-12-07T14:53:47;4.30;99.90
14682;DHT22;7429;52.498;13.480;2022-12-07T14:57:35;4.30;99.90
14682;DHT22;7429;52.498;13.480;2022-12-07T15:01:20;4.20;99.90
14682;DHT22;7429;52.498;13.480;2022-12-07T15:08:47;4.10;99.90
14682;DHT22;7429;52.498;13.480;2022-12-07T15:12:06;4.10;99.90
14682;DHT22;7429;52.498;13.480;2022-12-07T15:15:12;4.10;99.90
14682;DHT22;7429;52.498;13.480;2022-12-07T15:18:29;4.10;99.90
14682;DHT22;7429;52.498;13.480;2022-12-07T15:26:38;4.00;99.90
14682;DHT22;7429;52.498;13.480;2022-12-07T15:30:40;3.90;99.90
14682;DHT22;7429;52.498;13.480;2022-12-07T15:34:00;3.90;99.90
14682;DHT22;7429;52.498;13.480;2022-12-07T15:38:08;3.90;99.90
14682;DHT22;7429;52.498;13.480;2022-12-07T15:42:10;3.90;99.90
14682;DHT22;7429;52.498;13.480;2022-12-07T15:45:55;3.80;99.90
14682;DHT22;7429;52.498;13.480;2022-12-07T15:49:36;3.80;99.90
14682;DHT22;7429;52.498;13.480;2022-12-07T15:53:50;3.90;99.90
14682;DHT22;7429;52.498;13.480;2022-12-07T15:58:19;3.80;99.90
14682;DHT22;7429;52.498;13.480;2022-12-07T16:02:26;3.80;99.90
14682;DHT22;7429;52.498;13.480;2022-12-07T16:05:56;3.80;99.90
14682;DHT22;7429;52.498;13.480;2022-12-07T16:09:23;3.80;99.90
14682;DHT22;7429;52.498;13.480;2022-12-07T16:16:53;3.80;99.90
14682;DHT22;7429;52.498;13.480;2022-12-07T16:20:54;3.90;99.90
14682;DHT22;7429;52.498;13.480;2022-12-07T16:25:00;3.80;99.90
14682;DHT22;7429;52.498;13.480;2022-12-07T16:28:26;3.80;99.90
14682;DHT22;7429;52.498;13.480;2022-12-07T16:36:41;3.70;99.90
14682;DHT22;7429;52.498;13.480;2022-12-07T16:40:07;3.60;99.90
14682;DHT22;7429;52.498;13.480;2022-12-07T16:43:13;3.60;99.90
14682;DHT22;7429;52.498;13.480;2022-12-07T16:46:17;3.60;99.90
14682;DHT22;7429;52.498;13.480;2022-12-07T16:49:20;3.60;99.90
14682;DHT22;7429;52.498;13.480;2022-12-07T16:52:23;3.60;99.90
14682;DHT22;7429;52.498;13.480;2022-12-07T16:55:27;3.50;99.90
14682;DHT22;7429;52.498;13.480;2022-12-07T16:58:31;3.50;99.90
14682;DHT22;7429;52.498;13.480;2022-12-07T17:01:34;3.50;99.90
14682;DHT22;7429;52.498;13.480;2022-12-07T17:04:38;3.50;99.90
14682;DHT22;7429;52.498;13.480;2022-12-07T17:07:43;3.40;99.90
14682;DHT22;7429;52.498;13.480;2022-12-07T17:10:48;3.40;99.90
14682;DHT22;7429;52.498;13.480;2022-12-07T17:13:51;3.40;99.90
14682;DHT22;7429;52.498;13.480;2022-12-07T17:17:12;3.40;99.90
14682;DHT22;7429;52.498;13.480;2022-12-07T17:20:16;3.40;99.90
14682;DHT22;7429;52.498;13.480;2022-12-07T17:23:19;3.30;99.90
14682;DHT22;7429;52.498;13.480;2022-12-07T17:26:26;3.30;99.90
14682;DHT22;7429;52.498;13.480;2022-12-07T17:29:36;3.30;99.90
14682;DHT22;7429;52.498;13.480;2022-12-07T17:32:39;3.30;99.90
14682;DHT22;7429;52.498;13.480;2022-12-07T17:35:42;3.30;99.90
14682;DHT22;7429;52.498;13.480;2022-12-07T17:38:46;3.20;99.90
14682;DHT22;7429;52.498;13.480;2022-12-07T17:41:54;3.20;99.90
14682;DHT22;7429;52.498;13.480;2022-12-07T17:45:14;3.20;99.90
14682;DHT22;7429;52.498;13.480;2022-12-07T17:48:17;3.10;99.90
14682;DHT22;7429;52.498;13.480;2022-12-07T17:51:21;3.20;99.90
14682;DHT22;7429;52.498;13.480;2022-12-07T17:54:42;3.10;99.90
14682;DHT22;7429;52.498;13.480;2022-12-07T17:57:46;3.10;99.90
14682;DHT22;7429;52.498;13.480;2022-12-07T18:00:49;3.10;99.90
14682;DHT22;7429;52.498;13.480;2022-12-07T18:03:52;3.10;99.90
14682;DHT22;7429;52.498;13.480;2022-12-07T18:06:55;3.00;99.90
14682;DHT22;7429;52.498;13.480;2022-12-07T18:09:59;3.00;99.90
14682;DHT22;7429;52.498;13.480;2022-12-07T18:13:03;3.00;99.90
14682;DHT22;7429;52.498;13.480;2022-12-07T18:16:29;3.00;99.90
14682;DHT22;7429;52.498;13.480;2022-12-07T18:19:33;2.90;99.90
14682;DHT22;7429;52.498;13.480;2022-12-07T18:22:37;2.90;99.90
14682;DHT22;7429;52.498;13.480;2022-12-07T18:25:46;2.80;99.90
14682;DHT22;7429;52.498;13.480;2022-12-07T18:28:51;2.80;99.90
14682;DHT22;7429;52.498;13.480;2022-12-07T18:31:55;2.80;99.90
14682;DHT22;7429;52.498;13.480;2022-12-07T18:35:01;2.80;99.90
14682;DHT22;7429;52.498;13.480;2022-12-07T18:38:05;2.80;99.90
14682;DHT22;7429;52.498;13.480;2022-12-07T18:41:11;2.70;99.90
14682;DHT22;7429;52.498;13.480;2022-12-07T18:44:17;2.70;99.90
14682;DHT22;7429;52.498;13.480;2022-12-07T18:47:20;2.70;99.90
14682;DHT22;7429;52.498;13.480;2022-12-07T18:50:23;2.70;99.90
14682;DHT22;7429;52.498;13.480;2022-12-07T18:53:27;2.60;99.90
14682;DHT22;7429;52.498;13.480;2022-12-07T18:56:32;2.60;99.90
14682;DHT22;7429;52.498;13.480;2022-12-07T18:59:38;2.60;99.90
14682;DHT22;7429;52.498;13.480;2022-12-07T19:02:48;2.60;99.90
14682;DHT22;7429;52.498;13.480;2022-12-07T19:05:51;2.50;99.90
14682;DHT22;7429;52.498;13.480;2022-12-07T19:08:57;2.50;99.90
14682;DHT22;7429;52.498;13.480;2022-12-07T19:12:00;2.40;99.90
14682;DHT22;7429;52.498;13.480;2022-12-07T19:15:10;2.50;99.90
14682;DHT22;7429;52.498;13.480;2022-12-07T19:18:13;2.40;99.90
14682;DHT22;7429;52.498;13.480;2022-12-07T19:21:16;2.40;99.90
14682;DHT22;7429;52.498;13.480;2022-12-07T19:24:19;2.40;99.90
14682;DHT22;7429;52.498;13.480;2022-12-07T19:27:24;2.40;99.90
14682;DHT22;7429;52.498;13.480;2022-12-07T19:30:29;2.40;99.90
14682;DHT22;7429;52.498;13.480;2022-12-07T19:33:33;2.40;99.90
14682;DHT22;7429;52.498;13.480;2022-12-07T19:36:36;2.30;99.90
14682;DHT22;7429;52.498;13.480;2022-12-07T19:39:40;2.30;99.90
14682;DHT22;7429;52.498;13.480;2022-12-07T19:42:44;2.30;99.90
14682;DHT22;7429;52.498;13.480;2022-12-07T19:45:48;2.30;99.90
14682;DHT22;7429;52.498;13.480;2022-12-07T19:48:51;2.30;99.90
14682;DHT22;7429;52.498;13.480;2022-12-07T19:51:55;2.20;99.90
14682;DHT22;7429;52.498;13.480;2022-12-07T19:54:59;2.30;99.90
14682;DHT22;7429;52.498;13.480;2022-12-07T19:58:03;2.30;99.90
14682;DHT22;7429;52.498;13.480;2022-12-07T20:01:07;2.30;99.90
14682;DHT22;7429;52.498;13.480;2022-12-07T20:04:13;2.20;99.90
14682;DHT22;7429;52.498;13.480;2022-12-07T20:07:17;2.20;99.90
14682;DHT22;7429;52.498;13.480;2022-12-07T20:10:21;2.20;99.90
14682;DHT22;7429;52.498;13.480;2022-12-07T20:13:27;2.20;99.90
14682;DHT22;7429;52.498;13.480;2022-12-07T20:16:30;2.20;99.90
14682;DHT22;7429;52.498;13.480;2022-12-07T20:19:34;2.20;99.90
14682;DHT22;7429;52.498;13.480;2022-12-07T20:22:37;2.20;99.90
14682;DHT22;7429;52.498;13.480;2022-12-07T20:25:41;2.10;99.90
14682;DHT22;7429;52.498;13.480;2022-12-07T20:28:44;2.10;99.90
14682;DHT22;7429;52.498;13.480;2022-12-07T20:31:50;2.10;99.90
14682;DHT22;7429;52.498;13.480;2022-12-07T20:34:54;2.00;99.90
14682;DHT22;7429;52.498;13.480;2022-12-07T20:37:57;2.10;99.90
14682;DHT22;7429;52.498;13.480;2022-12-07T20:41:01;2.10;99.90
14682;DHT22;7429;52.498;13.480;2022-12-07T20:44:05;2.00;99.90
14682;DHT22;7429;52.498;13.480;2022-12-07T20:47:10;2.00;99.90
14682;DHT22;7429;52.498;13.480;2022-12-07T20:50:13;2.00;99.90
14682;DHT22;7429;52.498;13.480;2022-12-07T20:53:16;2.00;99.90
14682;DHT22;7429;52.498;13.480;2022-12-07T20:56:21;2.00;99.90
14682;DHT22;7429;52.498;13.480;2022-12-07T20:59:25;2.00;99.90
14682;DHT22;7429;52.498;13.480;2022-12-07T21:02:30;2.00;99.90
14682;DHT22;7429;52.498;13.480;2022-12-07T21:05:33;2.00;99.90
14682;DHT22;7429;52.498;13.480;2022-12-07T21:08:37;2.00;99.90
14682;DHT22;7429;52.498;13.480;2022-12-07T21:11:40;2.00;99.90
14682;DHT22;7429;52.498;13.480;2022-12-07T21:14:43;2.00;99.90
14682;DHT22;7429;52.498;13.480;2022-12-07T21:17:47;2.00;99.90
14682;DHT22;7429;52.498;13.480;2022-12-07T21:20:50;1.90;99.90
14682;DHT22;7429;52.498;13.480;2022-12-07T21:23:54;1.90;99.90